sensor_id;sensor_type;location;lat;lon;timestamp;P1;durP1;ratioP1;P2;durP2;ratioP2
32812;SDS011;19162;48.254;11.454;2023-12-14T00:00:20;1.02;;;0.93;;
32812;SDS011;19162;48.254;11.454;2023-12-14T00:03:20;2.58;;;0.88;;
32812;SDS011;19162;48.254;11.454;2023-12-14T00:06:21;1.13;;;0.90;;
32812;SDS011;19162;48.254;11.454;2023-12-14T00:09:21;1.02;;;0.70;;
32812;SDS011;19162;48.254;11.454;2023-12-14T00:12:21;0.93;;;0.93;;
32812;SDS011;19162;48.254;11.454;2023-12-14T00:15:21;1.53;;;1.10;;
32812;SDS011;19162;48.254;11.454;2023-12-14T00:18:21;1.20;;;1.10;;
32812;SDS011;19162;48.254;11.454;2023-12-14T00:21:22;1.20;;;1.10;;
32812;SDS011;19162;48.254;11.454;2023-12-14T00:24:22;1.23;;;1.05;;
32812;SDS011;19162;48.254;11.454;2023-12-14T00:27:22;1.23;;;1.10;;
32812;SDS011;19162;48.254;11.454;2023-12-14T00:30:22;0.80;;;0.80;;
32812;SDS011;19162;48.254;11.454;2023-12-14T00:33:22;2.30;;;1.20;;
32812;SDS011;19162;48.254;11.454;2023-12-14T00:36:23;1.27;;;1.15;;
32812;SDS011;19162;48.254;11.454;2023-12-14T00:39:23;1.58;;;1.25;;
32812;SDS011;19162;48.254;11.454;2023-12-14T00:42:23;1.20;;;1.10;;
32812;SDS011;19162;48.254;11.454;2023-12-14T00:45:23;1.40;;;1.30;;
32812;SDS011;19162;48.254;11.454;2023-12-14T00:48:24;2.00;;;1.47;;
32812;SDS011;19162;48.254;11.454;2023-12-14T00:51:24;1.30;;;1.20;;
32812;SDS011;19162;48.254;11.454;2023-12-14T00:54:24;1.45;;;1.35;;
32812;SDS011;19162;48.254;11.454;2023-12-14T00:57:24;1.33;;;1.25;;
32812;SDS011;19162;48.254;11.454;2023-12-14T01:00:24;2.33;;;1.40;;
32812;SDS011;19162;48.254;11.454;2023-12-14T01:03:25;1.45;;;1.27;;
32812;SDS011;19162;48.254;11.454;2023-12-14T01:06:25;1.85;;;1.42;;
32812;SDS011;19162;48.254;11.454;2023-12-14T01:09:25;1.38;;;1.30;;
32812;SDS011;19162;48.254;11.454;2023-12-14T01:12:25;1.50;;;1.40;;
32812;SDS011;19162;48.254;11.454;2023-12-14T01:15:25;2.05;;;1.15;;
32812;SDS011;19162;48.254;11.454;2023-12-14T01:18:25;1.52;;;1.42;;
32812;SDS011;19162;48.254;11.454;2023-12-14T01:21:26;1.53;;;1.40;;
32812;SDS011;19162;48.254;11.454;2023-12-14T01:24:26;1.42;;;1.33;;
32812;SDS011;19162;48.254;11.454;2023-12-14T01:27:26;1.25;;;1.17;;
32812;SDS011;19162;48.254;11.454;2023-12-14T01:30:26;1.30;;;1.13;;
32812;SDS011;19162;48.254;11.454;2023-12-14T01:33:27;1.30;;;1.20;;
32812;SDS011;19162;48.254;11.454;2023-12-14T01:36:27;1.27;;;1.17;;
32812;SDS011;19162;48.254;11.454;2023-12-14T01:39:27;1.00;;;1.00;;
32812;SDS011;19162;48.254;11.454;2023-12-14T01:42:27;1.87;;;1.10;;
32812;SDS011;19162;48.254;11.454;2023-12-14T01:45:27;0.90;;;0.90;;
32812;SDS011;19162;48.254;11.454;2023-12-14T01:48:28;1.02;;;1.00;;
32812;SDS011;19162;48.254;11.454;2023-12-14T01:51:28;1.23;;;1.13;;
32812;SDS011;19162;48.254;11.454;2023-12-14T01:54:28;1.25;;;0.80;;
32812;SDS011;19162;48.254;11.454;2023-12-14T01:57:29;1.27;;;1.00;;
32812;SDS011;19162;48.254;11.454;2023-12-14T02:03:46;0.98;;;0.93;;
32812;SDS011;19162;48.254;11.454;2023-12-14T02:06:46;0.70;;;0.70;;
32812;SDS011;19162;48.254;11.454;2023-12-14T02:09:46;2.10;;;0.93;;
32812;SDS011;19162;48.254;11.454;2023-12-14T02:12:46;1.05;;;0.68;;
32812;SDS011;19162;48.254;11.454;2023-12-14T02:15:46;0.65;;;0.65;;
32812;SDS011;19162;48.254;11.454;2023-12-14T02:18:47;0.68;;;0.60;;
32812;SDS011;19162;48.254;11.454;2023-12-14T02:21:47;0.57;;;0.57;;
32812;SDS011;19162;48.254;11.454;2023-12-14T02:24:47;0.80;;;0.77;;
32812;SDS011;19162;48.254;11.454;2023-12-14T02:27:48;0.85;;;0.85;;
32812;SDS011;19162;48.254;11.454;2023-12-14T02:30:49;0.98;;;0.98;;
32812;SDS011;19162;48.254;11.454;2023-12-14T02:33:49;1.42;;;1.33;;
32812;SDS011;19162;48.254;11.454;2023-12-14T02:36:49;1.25;;;1.17;;
32812;SDS011;19162;48.254;11.454;2023-12-14T02:39:49;1.40;;;1.30;;
32812;SDS011;19162;48.254;11.454;2023-12-14T02:42:49;2.45;;;1.65;;
32812;SDS011;19162;48.254;11.454;2023-12-14T02:45:50;1.87;;;1.63;;
32812;SDS011;19162;48.254;11.454;2023-12-14T02:48:50;1.70;;;1.60;;
32812;SDS011;19162;48.254;11.454;2023-12-14T02:51:50;1.92;;;1.83;;
32812;SDS011;19162;48.254;11.454;2023-12-14T02:54:50;2.13;;;2.03;;
32812;SDS011;19162;48.254;11.454;2023-12-14T02:57:50;1.90;;;1.80;;
32812;SDS011;19162;48.254;11.454;2023-12-14T03:00:50;1.92;;;1.83;;
32812;SDS011;19162;48.254;11.454;2023-12-14T03:03:51;2.03;;;1.93;;
32812;SDS011;19162;48.254;11.454;2023-12-14T03:06:51;2.10;;;2.00;;
32812;SDS011;19162;48.254;11.454;2023-12-14T03:09:51;2.20;;;2.00;;
32812;SDS011;19162;48.254;11.454;2023-12-14T03:12:51;2.10;;;2.00;;
32812;SDS011;19162;48.254;11.454;2023-12-14T03:15:52;2.55;;;2.45;;
32812;SDS011;19162;48.254;11.454;2023-12-14T03:18:52;2.60;;;2.50;;
32812;SDS011;19162;48.254;11.454;2023-12-14T03:21:53;3.35;;;3.10;;
32812;SDS011;19162;48.254;11.454;2023-12-14T03:24:53;2.80;;;2.60;;
32812;SDS011;19162;48.254;11.454;2023-12-14T03:27:53;3.30;;;3.00;;
32812;SDS011;19162;48.254;11.454;2023-12-14T03:30:53;3.85;;;3.65;;
32812;SDS011;19162;48.254;11.454;2023-12-14T03:33:54;3.63;;;3.42;;
32812;SDS011;19162;48.254;11.454;2023-12-14T03:36:54;3.50;;;3.30;;
32812;SDS011;19162;48.254;11.454;2023-12-14T03:39:54;3.50;;;3.30;;
32812;SDS011;19162;48.254;11.454;2023-12-14T03:42:54;4.00;;;3.80;;
32812;SDS011;19162;48.254;11.454;2023-12-14T03:45:55;3.65;;;3.35;;
32812;SDS011;19162;48.254;11.454;2023-12-14T03:48:55;3.40;;;3.20;;
32812;SDS011;19162;48.254;11.454;2023-12-14T03:51:55;3.87;;;3.60;;
32812;SDS011;19162;48.254;11.454;2023-12-14T03:54:55;3.35;;;3.05;;
32812;SDS011;19162;48.254;11.454;2023-12-14T03:57:56;2.83;;;2.70;;
32812;SDS011;19162;48.254;11.454;2023-12-14T04:00:56;2.92;;;2.72;;
32812;SDS011;19162;48.254;11.454;2023-12-14T04:03:56;2.83;;;2.63;;
32812;SDS011;19162;48.254;11.454;2023-12-14T04:06:56;2.55;;;2.30;;
32812;SDS011;19162;48.254;11.454;2023-12-14T04:09:56;2.50;;;2.40;;
32812;SDS011;19162;48.254;11.454;2023-12-14T04:12:57;2.28;;;2.17;;
32812;SDS011;19162;48.254;11.454;2023-12-14T04:15:57;2.03;;;1.92;;
32812;SDS011;19162;48.254;11.454;2023-12-14T04:18:57;2.25;;;2.15;;
32812;SDS011;19162;48.254;11.454;2023-12-14T04:21:57;2.00;;;1.90;;
32812;SDS011;19162;48.254;11.454;2023-12-14T04:24:57;2.10;;;2.00;;
32812;SDS011;19162;48.254;11.454;2023-12-14T04:27:58;1.75;;;1.65;;
32812;SDS011;19162;48.254;11.454;2023-12-14T04:30:58;1.98;;;1.88;;
32812;SDS011;19162;48.254;11.454;2023-12-14T04:33:58;1.90;;;1.80;;
32812;SDS011;19162;48.254;11.454;2023-12-14T04:36:58;1.48;;;1.38;;
32812;SDS011;19162;48.254;11.454;2023-12-14T04:39:58;1.73;;;1.63;;
32812;SDS011;19162;48.254;11.454;2023-12-14T04:42:58;1.40;;;1.30;;
32812;SDS011;19162;48.254;11.454;2023-12-14T04:45:59;1.60;;;1.48;;
32812;SDS011;19162;48.254;11.454;2023-12-14T04:48:59;1.38;;;1.30;;
32812;SDS011;19162;48.254;11.454;2023-12-14T04:51:59;1.13;;;1.13;;
32812;SDS011;19162;48.254;11.454;2023-12-14T04:54:59;2.03;;;1.90;;
32812;SDS011;19162;48.254;11.454;2023-12-14T04:57:59;1.92;;;1.40;;
32812;SDS011;19162;48.254;11.454;2023-12-14T05:01:00;1.50;;;1.40;;
32812;SDS011;19162;48.254;11.454;2023-12-14T05:04:00;0.82;;;0.82;;
32812;SDS011;19162;48.254;11.454;2023-12-14T05:07:00;1.60;;;1.50;;
32812;SDS011;19162;48.254;11.454;2023-12-14T05:10:00;1.00;;;0.93;;
32812;SDS011;19162;48.254;11.454;2023-12-14T05:13:00;1.47;;;1.37;;
32812;SDS011;19162;48.254;11.454;2023-12-14T05:16:01;1.30;;;1.20;;
32812;SDS011;19162;48.254;11.454;2023-12-14T05:19:01;1.70;;;1.60;;
32812;SDS011;19162;48.254;11.454;2023-12-14T05:22:01;2.70;;;1.50;;
32812;SDS011;19162;48.254;11.454;2023-12-14T05:25:02;2.45;;;1.50;;
32812;SDS011;19162;48.254;11.454;2023-12-14T05:28:02;1.50;;;1.40;;
32812;SDS011;19162;48.254;11.454;2023-12-14T05:31:03;2.05;;;1.80;;
32812;SDS011;19162;48.254;11.454;2023-12-14T05:34:04;2.08;;;1.98;;
32812;SDS011;19162;48.254;11.454;2023-12-14T05:37:04;2.03;;;1.92;;
32812;SDS011;19162;48.254;11.454;2023-12-14T05:40:04;2.33;;;2.13;;
32812;SDS011;19162;48.254;11.454;2023-12-14T05:43:04;2.40;;;2.20;;
32812;SDS011;19162;48.254;11.454;2023-12-14T05:46:05;2.33;;;2.13;;
32812;SDS011;19162;48.254;11.454;2023-12-14T05:49:05;2.33;;;2.13;;
32812;SDS011;19162;48.254;11.454;2023-12-14T05:52:06;2.58;;;2.35;;
32812;SDS011;19162;48.254;11.454;2023-12-14T05:55:07;2.65;;;2.45;;
32812;SDS011;19162;48.254;11.454;2023-12-14T05:58:08;4.32;;;2.63;;
32812;SDS011;19162;48.254;11.454;2023-12-14T06:01:08;2.83;;;2.63;;
32812;SDS011;19162;48.254;11.454;2023-12-14T06:04:08;2.63;;;2.42;;
32812;SDS011;19162;48.254;11.454;2023-12-14T06:07:09;2.73;;;2.53;;
32812;SDS011;19162;48.254;11.454;2023-12-14T06:10:09;2.97;;;2.73;;
32812;SDS011;19162;48.254;11.454;2023-12-14T06:13:09;2.80;;;2.70;;
32812;SDS011;19162;48.254;11.454;2023-12-14T06:16:10;3.42;;;3.22;;
32812;SDS011;19162;48.254;11.454;2023-12-14T06:19:12;3.20;;;2.90;;
32812;SDS011;19162;48.254;11.454;2023-12-14T06:22:12;3.28;;;3.08;;
32812;SDS011;19162;48.254;11.454;2023-12-14T06:25:12;3.35;;;3.05;;
32812;SDS011;19162;48.254;11.454;2023-12-14T06:28:13;3.40;;;3.10;;
32812;SDS011;19162;48.254;11.454;2023-12-14T06:31:13;3.70;;;3.40;;
32812;SDS011;19162;48.254;11.454;2023-12-14T06:34:14;3.67;;;3.47;;
32812;SDS011;19162;48.254;11.454;2023-12-14T06:37:14;3.67;;;3.38;;
32812;SDS011;19162;48.254;11.454;2023-12-14T06:40:14;4.03;;;3.73;;
32812;SDS011;19162;48.254;11.454;2023-12-14T06:43:15;3.70;;;3.50;;
32812;SDS011;19162;48.254;11.454;2023-12-14T06:46:15;3.78;;;3.47;;
32812;SDS011;19162;48.254;11.454;2023-12-14T06:49:15;4.40;;;3.45;;
32812;SDS011;19162;48.254;11.454;2023-12-14T06:52:16;3.92;;;3.53;;
32812;SDS011;19162;48.254;11.454;2023-12-14T06:55:16;3.25;;;3.05;;
32812;SDS011;19162;48.254;11.454;2023-12-14T06:58:17;3.70;;;3.42;;
32812;SDS011;19162;48.254;11.454;2023-12-14T07:01:17;4.57;;;4.18;;
32812;SDS011;19162;48.254;11.454;2023-12-14T07:04:20;4.18;;;3.83;;
32812;SDS011;19162;48.254;11.454;2023-12-14T07:07:20;4.03;;;3.73;;
32812;SDS011;19162;48.254;11.454;2023-12-14T07:10:20;4.35;;;4.05;;
32812;SDS011;19162;48.254;11.454;2023-12-14T07:13:21;3.97;;;3.67;;
32812;SDS011;19162;48.254;11.454;2023-12-14T07:16:21;4.10;;;3.80;;
32812;SDS011;19162;48.254;11.454;2023-12-14T07:19:21;3.87;;;3.50;;
32812;SDS011;19162;48.254;11.454;2023-12-14T07:22:21;3.97;;;3.67;;
32812;SDS011;19162;48.254;11.454;2023-12-14T07:25:21;4.28;;;3.97;;
32812;SDS011;19162;48.254;11.454;2023-12-14T07:28:22;3.72;;;3.42;;
32812;SDS011;19162;48.254;11.454;2023-12-14T07:31:22;3.90;;;3.60;;
32812;SDS011;19162;48.254;11.454;2023-12-14T07:34:22;3.93;;;3.60;;
32812;SDS011;19162;48.254;11.454;2023-12-14T07:37:24;4.63;;;3.77;;
32812;SDS011;19162;48.254;11.454;2023-12-14T07:40:24;3.90;;;3.60;;
32812;SDS011;19162;48.254;11.454;2023-12-14T07:43:25;4.13;;;3.77;;
32812;SDS011;19162;48.254;11.454;2023-12-14T07:46:25;4.78;;;4.35;;
32812;SDS011;19162;48.254;11.454;2023-12-14T07:49:25;4.55;;;3.78;;
32812;SDS011;19162;48.254;11.454;2023-12-14T07:52:25;4.57;;;4.28;;
32812;SDS011;19162;48.254;11.454;2023-12-14T07:55:25;4.45;;;4.15;;
32812;SDS011;19162;48.254;11.454;2023-12-14T07:58:26;4.37;;;3.97;;
32812;SDS011;19162;48.254;11.454;2023-12-14T08:01:26;5.10;;;4.70;;
32812;SDS011;19162;48.254;11.454;2023-12-14T08:04:26;4.60;;;4.30;;
32812;SDS011;19162;48.254;11.454;2023-12-14T08:07:27;5.93;;;5.43;;
32812;SDS011;19162;48.254;11.454;2023-12-14T08:10:30;5.53;;;5.03;;
32812;SDS011;19162;48.254;11.454;2023-12-14T08:13:30;5.43;;;5.00;;
32812;SDS011;19162;48.254;11.454;2023-12-14T08:16:30;5.80;;;5.30;;
32812;SDS011;19162;48.254;11.454;2023-12-14T08:19:30;5.63;;;5.22;;
32812;SDS011;19162;48.254;11.454;2023-12-14T08:22:30;5.82;;;5.43;;
32812;SDS011;19162;48.254;11.454;2023-12-14T08:25:31;6.60;;;6.05;;
32812;SDS011;19162;48.254;11.454;2023-12-14T08:28:31;6.43;;;5.70;;
32812;SDS011;19162;48.254;11.454;2023-12-14T08:31:31;5.38;;;4.97;;
32812;SDS011;19162;48.254;11.454;2023-12-14T08:34:32;5.38;;;4.97;;
32812;SDS011;19162;48.254;11.454;2023-12-14T08:37:32;5.20;;;4.80;;
32812;SDS011;19162;48.254;11.454;2023-12-14T08:40:32;4.88;;;4.47;;
32812;SDS011;19162;48.254;11.454;2023-12-14T08:43:32;4.83;;;4.43;;
32812;SDS011;19162;48.254;11.454;2023-12-14T08:46:45;5.10;;;4.70;;
32812;SDS011;19162;48.254;11.454;2023-12-14T08:49:45;5.22;;;4.82;;
32812;SDS011;19162;48.254;11.454;2023-12-14T08:52:46;4.80;;;4.43;;
32812;SDS011;19162;48.254;11.454;2023-12-14T08:55:47;4.93;;;4.63;;
32812;SDS011;19162;48.254;11.454;2023-12-14T08:58:47;7.35;;;6.30;;
32812;SDS011;19162;48.254;11.454;2023-12-14T09:01:47;5.03;;;4.63;;
32812;SDS011;19162;48.254;11.454;2023-12-14T09:04:47;4.70;;;4.40;;
32812;SDS011;19162;48.254;11.454;2023-12-14T09:07:47;5.33;;;4.90;;
32812;SDS011;19162;48.254;11.454;2023-12-14T09:10:47;5.07;;;4.63;;
32812;SDS011;19162;48.254;11.454;2023-12-14T09:13:48;4.97;;;4.50;;
32812;SDS011;19162;48.254;11.454;2023-12-14T09:16:48;6.17;;;5.60;;
32812;SDS011;19162;48.254;11.454;2023-12-14T09:19:48;6.15;;;5.60;;
32812;SDS011;19162;48.254;11.454;2023-12-14T09:22:48;5.57;;;5.07;;
32812;SDS011;19162;48.254;11.454;2023-12-14T09:25:48;6.20;;;5.70;;
32812;SDS011;19162;48.254;11.454;2023-12-14T09:28:49;5.15;;;4.75;;
32812;SDS011;19162;48.254;11.454;2023-12-14T09:31:49;6.13;;;5.72;;
32812;SDS011;19162;48.254;11.454;2023-12-14T09:34:50;6.53;;;6.03;;
32812;SDS011;19162;48.254;11.454;2023-12-14T09:37:51;5.60;;;5.10;;
32812;SDS011;19162;48.254;11.454;2023-12-14T09:40:53;6.38;;;5.93;;
32812;SDS011;19162;48.254;11.454;2023-12-14T09:43:53;6.13;;;5.63;;
32812;SDS011;19162;48.254;11.454;2023-12-14T09:46:53;6.70;;;6.20;;
32812;SDS011;19162;48.254;11.454;2023-12-14T09:49:54;6.75;;;6.20;;
32812;SDS011;19162;48.254;11.454;2023-12-14T09:52:54;7.45;;;6.93;;
32812;SDS011;19162;48.254;11.454;2023-12-14T09:55:54;8.55;;;7.90;;
32812;SDS011;19162;48.254;11.454;2023-12-14T09:58:54;8.45;;;7.75;;
32812;SDS011;19162;48.254;11.454;2023-12-14T10:02:10;7.13;;;6.60;;
32812;SDS011;19162;48.254;11.454;2023-12-14T10:05:11;7.05;;;6.45;;
32812;SDS011;19162;48.254;11.454;2023-12-14T10:08:11;6.60;;;6.10;;
32812;SDS011;19162;48.254;11.454;2023-12-14T10:11:14;5.13;;;4.80;;
32812;SDS011;19162;48.254;11.454;2023-12-14T10:14:22;3.58;;;3.28;;
32812;SDS011;19162;48.254;11.454;2023-12-14T10:17:22;3.42;;;3.13;;
32812;SDS011;19162;48.254;11.454;2023-12-14T10:20:31;2.53;;;2.38;;
32812;SDS011;19162;48.254;11.454;2023-12-14T10:23:31;2.13;;;2.03;;
32812;SDS011;19162;48.254;11.454;2023-12-14T10:26:35;2.40;;;2.20;;
32812;SDS011;19162;48.254;11.454;2023-12-14T10:29:38;2.15;;;2.05;;
32812;SDS011;19162;48.254;11.454;2023-12-14T10:32:39;2.65;;;1.80;;
32812;SDS011;19162;48.254;11.454;2023-12-14T10:35:41;1.88;;;1.77;;
32812;SDS011;19162;48.254;11.454;2023-12-14T10:38:43;2.40;;;2.20;;
32812;SDS011;19162;48.254;11.454;2023-12-14T10:41:46;3.13;;;2.92;;
32812;SDS011;19162;48.254;11.454;2023-12-14T10:44:48;3.55;;;3.13;;
32812;SDS011;19162;48.254;11.454;2023-12-14T10:47:50;4.47;;;4.07;;
32812;SDS011;19162;48.254;11.454;2023-12-14T10:50:51;4.18;;;3.95;;
32812;SDS011;19162;48.254;11.454;2023-12-14T10:53:51;5.68;;;5.18;;
32812;SDS011;19162;48.254;11.454;2023-12-14T10:56:56;6.10;;;5.70;;
32812;SDS011;19162;48.254;11.454;2023-12-14T10:59:59;6.55;;;5.63;;
32812;SDS011;19162;48.254;11.454;2023-12-14T11:03:00;6.38;;;5.88;;
32812;SDS011;19162;48.254;11.454;2023-12-14T11:06:00;5.90;;;5.50;;
32812;SDS011;19162;48.254;11.454;2023-12-14T11:09:07;6.30;;;5.80;;
32812;SDS011;19162;48.254;11.454;2023-12-14T11:12:07;6.57;;;6.13;;
32812;SDS011;19162;48.254;11.454;2023-12-14T11:15:10;5.18;;;4.82;;
32812;SDS011;19162;48.254;11.454;2023-12-14T11:21:11;4.53;;;4.13;;
32812;SDS011;19162;48.254;11.454;2023-12-14T11:24:17;4.15;;;3.83;;
32812;SDS011;19162;48.254;11.454;2023-12-14T11:27:19;4.00;;;3.70;;
32812;SDS011;19162;48.254;11.454;2023-12-14T11:30:19;4.22;;;3.92;;
32812;SDS011;19162;48.254;11.454;2023-12-14T11:33:20;3.70;;;3.40;;
32812;SDS011;19162;48.254;11.454;2023-12-14T11:36:20;3.60;;;3.38;;
32812;SDS011;19162;48.254;11.454;2023-12-14T11:39:20;3.42;;;3.13;;
32812;SDS011;19162;48.254;11.454;2023-12-14T11:42:21;3.20;;;2.90;;
32812;SDS011;19162;48.254;11.454;2023-12-14T11:45:21;3.33;;;3.00;;
32812;SDS011;19162;48.254;11.454;2023-12-14T11:48:21;2.97;;;2.70;;
32812;SDS011;19162;48.254;11.454;2023-12-14T11:51:22;3.17;;;2.97;;
32812;SDS011;19162;48.254;11.454;2023-12-14T11:54:22;3.10;;;2.90;;
32812;SDS011;19162;48.254;11.454;2023-12-14T11:57:22;3.30;;;3.10;;
32812;SDS011;19162;48.254;11.454;2023-12-14T12:00:28;2.90;;;2.70;;
32812;SDS011;19162;48.254;11.454;2023-12-14T12:03:32;2.80;;;2.55;;
32812;SDS011;19162;48.254;11.454;2023-12-14T12:06:33;2.80;;;2.60;;
32812;SDS011;19162;48.254;11.454;2023-12-14T12:09:43;2.25;;;2.15;;
32812;SDS011;19162;48.254;11.454;2023-12-14T12:12:44;2.60;;;2.40;;
32812;SDS011;19162;48.254;11.454;2023-12-14T12:15:44;2.72;;;2.53;;
32812;SDS011;19162;48.254;11.454;2023-12-14T12:18:44;2.67;;;2.45;;
32812;SDS011;19162;48.254;11.454;2023-12-14T12:21:45;2.88;;;2.67;;
32812;SDS011;19162;48.254;11.454;2023-12-14T12:24:45;2.50;;;2.30;;
32812;SDS011;19162;48.254;11.454;2023-12-14T12:27:45;2.87;;;2.60;;
32812;SDS011;19162;48.254;11.454;2023-12-14T12:30:46;3.28;;;2.50;;
32812;SDS011;19162;48.254;11.454;2023-12-14T12:33:46;2.63;;;2.42;;
32812;SDS011;19162;48.254;11.454;2023-12-14T12:36:47;2.33;;;2.13;;
32812;SDS011;19162;48.254;11.454;2023-12-14T12:39:47;2.87;;;2.67;;
32812;SDS011;19162;48.254;11.454;2023-12-14T12:42:47;2.85;;;2.65;;
32812;SDS011;19162;48.254;11.454;2023-12-14T12:45:48;2.70;;;2.50;;
32812;SDS011;19162;48.254;11.454;2023-12-14T12:48:48;2.60;;;2.40;;
32812;SDS011;19162;48.254;11.454;2023-12-14T12:51:49;2.88;;;2.58;;
32812;SDS011;19162;48.254;11.454;2023-12-14T12:54:49;3.25;;;2.67;;
32812;SDS011;19162;48.254;11.454;2023-12-14T12:57:50;2.97;;;2.77;;
32812;SDS011;19162;48.254;11.454;2023-12-14T13:00:50;3.07;;;2.77;;
32812;SDS011;19162;48.254;11.454;2023-12-14T13:03:53;2.45;;;2.30;;
32812;SDS011;19162;48.254;11.454;2023-12-14T13:06:54;3.63;;;3.30;;
32812;SDS011;19162;48.254;11.454;2023-12-14T13:09:55;6.30;;;5.00;;
32812;SDS011;19162;48.254;11.454;2023-12-14T13:12:55;7.20;;;6.65;;
32812;SDS011;19162;48.254;11.454;2023-12-14T13:15:56;5.70;;;5.30;;
32812;SDS011;19162;48.254;11.454;2023-12-14T13:18:56;4.03;;;3.73;;
32812;SDS011;19162;48.254;11.454;2023-12-14T13:21:57;3.38;;;3.08;;
32812;SDS011;19162;48.254;11.454;2023-12-14T13:24:59;3.23;;;3.03;;
32812;SDS011;19162;48.254;11.454;2023-12-14T13:27:59;3.90;;;3.60;;
32812;SDS011;19162;48.254;11.454;2023-12-14T13:31:00;3.67;;;3.47;;
32812;SDS011;19162;48.254;11.454;2023-12-14T13:34:00;3.33;;;3.03;;
32812;SDS011;19162;48.254;11.454;2023-12-14T13:37:00;3.15;;;2.95;;
32812;SDS011;19162;48.254;11.454;2023-12-14T13:40:00;3.77;;;3.47;;
32812;SDS011;19162;48.254;11.454;2023-12-14T13:43:01;4.60;;;4.20;;
32812;SDS011;19162;48.254;11.454;2023-12-14T13:46:09;3.10;;;2.78;;
32812;SDS011;19162;48.254;11.454;2023-12-14T13:49:10;3.27;;;2.93;;
32812;SDS011;19162;48.254;11.454;2023-12-14T13:52:10;3.47;;;3.23;;
32812;SDS011;19162;48.254;11.454;2023-12-14T13:55:10;2.70;;;2.50;;
32812;SDS011;19162;48.254;11.454;2023-12-14T13:58:10;3.60;;;3.30;;
32812;SDS011;19162;48.254;11.454;2023-12-14T14:01:10;3.10;;;2.90;;
32812;SDS011;19162;48.254;11.454;2023-12-14T14:04:11;6.95;;;3.80;;
32812;SDS011;19162;48.254;11.454;2023-12-14T14:07:11;3.70;;;3.40;;
32812;SDS011;19162;48.254;11.454;2023-12-14T14:10:11;4.15;;;3.63;;
32812;SDS011;19162;48.254;11.454;2023-12-14T14:13:11;3.90;;;3.30;;
32812;SDS011;19162;48.254;11.454;2023-12-14T14:16:12;3.55;;;3.20;;
32812;SDS011;19162;48.254;11.454;2023-12-14T14:19:12;3.53;;;3.03;;
32812;SDS011;19162;48.254;11.454;2023-12-14T14:22:12;2.83;;;2.63;;
32812;SDS011;19162;48.254;11.454;2023-12-14T14:25:12;2.92;;;2.72;;
32812;SDS011;19162;48.254;11.454;2023-12-14T14:28:12;3.30;;;3.10;;
32812;SDS011;19162;48.254;11.454;2023-12-14T14:31:12;3.83;;;3.47;;
32812;SDS011;19162;48.254;11.454;2023-12-14T14:34:13;4.57;;;4.17;;
32812;SDS011;19162;48.254;11.454;2023-12-14T14:37:13;3.42;;;3.13;;
32812;SDS011;19162;48.254;11.454;2023-12-14T14:40:13;3.58;;;3.28;;
32812;SDS011;19162;48.254;11.454;2023-12-14T14:43:13;7.00;;;3.00;;
32812;SDS011;19162;48.254;11.454;2023-12-14T14:46:14;3.20;;;3.00;;
32812;SDS011;19162;48.254;11.454;2023-12-14T14:49:14;2.97;;;2.77;;
32812;SDS011;19162;48.254;11.454;2023-12-14T14:52:14;3.90;;;3.00;;
32812;SDS011;19162;48.254;11.454;2023-12-14T14:55:15;3.53;;;3.22;;
32812;SDS011;19162;48.254;11.454;2023-12-14T14:58:15;3.58;;;3.28;;
32812;SDS011;19162;48.254;11.454;2023-12-14T15:01:15;4.38;;;3.72;;
32812;SDS011;19162;48.254;11.454;2023-12-14T15:04:16;6.57;;;5.43;;
32812;SDS011;19162;48.254;11.454;2023-12-14T15:07:16;4.93;;;4.25;;
32812;SDS011;19162;48.254;11.454;2023-12-14T15:10:16;4.90;;;3.57;;
32812;SDS011;19162;48.254;11.454;2023-12-14T15:13:16;3.97;;;3.67;;
32812;SDS011;19162;48.254;11.454;2023-12-14T15:16:22;3.30;;;3.00;;
32812;SDS011;19162;48.254;11.454;2023-12-14T15:19:24;3.40;;;3.20;;
32812;SDS011;19162;48.254;11.454;2023-12-14T15:22:25;3.80;;;3.47;;
32812;SDS011;19162;48.254;11.454;2023-12-14T15:25:25;3.45;;;2.88;;
32812;SDS011;19162;48.254;11.454;2023-12-14T15:28:25;3.13;;;2.90;;
32812;SDS011;19162;48.254;11.454;2023-12-14T15:31:25;4.10;;;3.50;;
32812;SDS011;19162;48.254;11.454;2023-12-14T15:34:26;3.03;;;2.83;;
32812;SDS011;19162;48.254;11.454;2023-12-14T15:37:26;3.03;;;2.83;;
32812;SDS011;19162;48.254;11.454;2023-12-14T15:40:26;4.22;;;3.42;;
32812;SDS011;19162;48.254;11.454;2023-12-14T15:43:26;4.00;;;3.43;;
32812;SDS011;19162;48.254;11.454;2023-12-14T15:46:26;5.38;;;4.78;;
32812;SDS011;19162;48.254;11.454;2023-12-14T15:49:26;4.75;;;4.28;;
32812;SDS011;19162;48.254;11.454;2023-12-14T15:52:27;9.07;;;8.00;;
32812;SDS011;19162;48.254;11.454;2023-12-14T15:55:28;11.05;;;6.47;;
32812;SDS011;19162;48.254;11.454;2023-12-14T15:58:29;8.65;;;5.72;;
32812;SDS011;19162;48.254;11.454;2023-12-14T16:01:29;10.98;;;8.23;;
32812;SDS011;19162;48.254;11.454;2023-12-14T16:04:30;9.85;;;6.80;;
32812;SDS011;19162;48.254;11.454;2023-12-14T16:07:30;8.00;;;6.90;;
32812;SDS011;19162;48.254;11.454;2023-12-14T16:10:30;7.72;;;6.43;;
32812;SDS011;19162;48.254;11.454;2023-12-14T16:13:30;5.45;;;4.68;;
32812;SDS011;19162;48.254;11.454;2023-12-14T16:16:31;4.43;;;4.03;;
32812;SDS011;19162;48.254;11.454;2023-12-14T16:19:31;5.05;;;4.30;;
32812;SDS011;19162;48.254;11.454;2023-12-14T16:22:32;4.00;;;3.60;;
32812;SDS011;19162;48.254;11.454;2023-12-14T16:25:32;4.07;;;3.67;;
32812;SDS011;19162;48.254;11.454;2023-12-14T16:28:33;5.87;;;5.40;;
32812;SDS011;19162;48.254;11.454;2023-12-14T16:31:39;7.20;;;6.50;;
32812;SDS011;19162;48.254;11.454;2023-12-14T16:34:39;4.55;;;4.15;;
32812;SDS011;19162;48.254;11.454;2023-12-14T16:37:39;4.65;;;4.00;;
32812;SDS011;19162;48.254;11.454;2023-12-14T16:40:39;4.32;;;3.92;;
32812;SDS011;19162;48.254;11.454;2023-12-14T16:43:39;3.63;;;3.43;;
32812;SDS011;19162;48.254;11.454;2023-12-14T16:46:40;4.22;;;3.92;;
32812;SDS011;19162;48.254;11.454;2023-12-14T16:49:41;4.25;;;3.75;;
32812;SDS011;19162;48.254;11.454;2023-12-14T16:52:41;4.35;;;3.95;;
32812;SDS011;19162;48.254;11.454;2023-12-14T16:55:41;4.80;;;4.38;;
32812;SDS011;19162;48.254;11.454;2023-12-14T16:58:41;5.53;;;4.80;;
32812;SDS011;19162;48.254;11.454;2023-12-14T17:01:42;5.00;;;4.47;;
32812;SDS011;19162;48.254;11.454;2023-12-14T17:04:42;6.23;;;4.93;;
32812;SDS011;19162;48.254;11.454;2023-12-14T17:07:43;5.32;;;4.85;;
32812;SDS011;19162;48.254;11.454;2023-12-14T17:10:43;5.20;;;4.80;;
32812;SDS011;19162;48.254;11.454;2023-12-14T17:13:44;5.20;;;4.80;;
32812;SDS011;19162;48.254;11.454;2023-12-14T17:16:44;5.95;;;4.65;;
32812;SDS011;19162;48.254;11.454;2023-12-14T17:19:45;5.32;;;4.93;;
32812;SDS011;19162;48.254;11.454;2023-12-14T17:22:45;4.82;;;4.13;;
32812;SDS011;19162;48.254;11.454;2023-12-14T17:25:45;3.47;;;3.25;;
32812;SDS011;19162;48.254;11.454;2023-12-14T17:28:46;5.77;;;4.60;;
32812;SDS011;19162;48.254;11.454;2023-12-14T17:31:46;3.88;;;3.58;;
32812;SDS011;19162;48.254;11.454;2023-12-14T17:34:46;4.27;;;3.53;;
32812;SDS011;19162;48.254;11.454;2023-12-14T17:37:47;4.85;;;3.72;;
32812;SDS011;19162;48.254;11.454;2023-12-14T17:40:47;4.25;;;3.85;;
32812;SDS011;19162;48.254;11.454;2023-12-14T17:43:47;4.70;;;4.10;;
32812;SDS011;19162;48.254;11.454;2023-12-14T17:46:48;4.20;;;3.80;;
32812;SDS011;19162;48.254;11.454;2023-12-14T17:49:48;4.28;;;3.67;;
32812;SDS011;19162;48.254;11.454;2023-12-14T17:52:48;3.73;;;3.43;;
32812;SDS011;19162;48.254;11.454;2023-12-14T17:55:48;4.40;;;4.00;;